Radford, Virginia
Current Conditions -  °F | °C
As of 10:35 PM on Friday 19 Dec 2014 (Local Time) from KPSK Reporting Station
Clear Clear  
Wind Chill: -1°   Ceiling: Unl
Heat Index: -1°   Visibility: 10mi
Dew Point: -4°   Wind: 3mph
Humidity: 78%   Direction: 100°E
Pressure: 30.18"   Gusts: NA
Location:  37.12°N, 80.59°W
Report Text: KPSK 200335Z AUTO 10003KT 10SM CLR M01/M04 A3018 RMK AO2 T10071041
Loading
Personal Weather Stations






























Interactive Weather Map New forecast layout! Learn more

10-Day Weather Forecast

Advertisements
Track Severe Weather on mobile